sensor_id;sensor_type;location;lat;lon;timestamp;temperature;humidity
431;DHT22;202;48.764;9.172;2023-03-24T00:02:06;16.20;43.30
431;DHT22;202;48.764;9.172;2023-03-24T00:04:34;16.20;43.60
431;DHT22;202;48.764;9.172;2023-03-24T00:07:01;16.20;44.30
431;DHT22;202;48.764;9.172;2023-03-24T00:09:29;16.10;45.30
431;DHT22;202;48.764;9.172;2023-03-24T00:11:57;16.00;46.30
431;DHT22;202;48.764;9.172;2023-03-24T00:14:24;16.00;46.10
431;DHT22;202;48.764;9.172;2023-03-24T00:16:51;16.00;45.80
431;DHT22;202;48.764;9.172;2023-03-24T00:19:19;16.00;47.20
431;DHT22;202;48.764;9.172;2023-03-24T00:21:48;16.00;46.80
431;DHT22;202;48.764;9.172;2023-03-24T00:24:15;16.00;46.20
431;DHT22;202;48.764;9.172;2023-03-24T00:26:43;15.90;47.00
431;DHT22;202;48.764;9.172;2023-03-24T00:29:10;15.90;47.10
431;DHT22;202;48.764;9.172;2023-03-24T00:31:38;15.90;46.00
431;DHT22;202;48.764;9.172;2023-03-24T00:34:05;16.00;46.50
431;DHT22;202;48.764;9.172;2023-03-24T00:36:33;15.90;46.50
431;DHT22;202;48.764;9.172;2023-03-24T00:39:02;15.90;45.60
431;DHT22;202;48.764;9.172;2023-03-24T00:41:30;15.90;44.50
431;DHT22;202;48.764;9.172;2023-03-24T00:43:59;15.90;45.20
431;DHT22;202;48.764;9.172;2023-03-24T00:46:28;15.90;45.70
431;DHT22;202;48.764;9.172;2023-03-24T00:48:56;15.90;44.00
431;DHT22;202;48.764;9.172;2023-03-24T00:51:27;15.90;44.00
431;DHT22;202;48.764;9.172;2023-03-24T00:53:54;15.80;46.10
431;DHT22;202;48.764;9.172;2023-03-24T00:56:25;15.80;43.90
431;DHT22;202;48.764;9.172;2023-03-24T00:58:54;15.80;43.90
431;DHT22;202;48.764;9.172;2023-03-24T01:01:23;15.90;43.10
431;DHT22;202;48.764;9.172;2023-03-24T01:03:50;15.80;43.90
431;DHT22;202;48.764;9.172;2023-03-24T01:06:17;15.80;43.70
431;DHT22;202;48.764;9.172;2023-03-24T01:08:47;15.90;42.90
431;DHT22;202;48.764;9.172;2023-03-24T01:11:15;15.90;43.20
431;DHT22;202;48.764;9.172;2023-03-24T01:13:43;16.00;43.30
431;DHT22;202;48.764;9.172;2023-03-24T01:16:10;16.00;42.10
431;DHT22;202;48.764;9.172;2023-03-24T01:18:38;16.10;42.30
431;DHT22;202;48.764;9.172;2023-03-24T01:21:06;16.00;43.10
431;DHT22;202;48.764;9.172;2023-03-24T01:23:34;15.90;43.60
431;DHT22;202;48.764;9.172;2023-03-24T01:26:04;15.90;43.90
431;DHT22;202;48.764;9.172;2023-03-24T01:28:33;15.90;43.50
431;DHT22;202;48.764;9.172;2023-03-24T01:31:06;15.90;43.50
431;DHT22;202;48.764;9.172;2023-03-24T01:33:35;15.80;42.00
431;DHT22;202;48.764;9.172;2023-03-24T01:36:03;15.90;41.90
431;DHT22;202;48.764;9.172;2023-03-24T01:38:30;15.80;43.20
431;DHT22;202;48.764;9.172;2023-03-24T01:40:57;15.90;42.90
431;DHT22;202;48.764;9.172;2023-03-24T01:43:27;15.90;43.40
431;DHT22;202;48.764;9.172;2023-03-24T01:46:02;15.80;44.30
431;DHT22;202;48.764;9.172;2023-03-24T01:48:37;15.90;43.00
431;DHT22;202;48.764;9.172;2023-03-24T01:51:09;15.90;43.00
431;DHT22;202;48.764;9.172;2023-03-24T01:53:41;15.80;43.90
431;DHT22;202;48.764;9.172;2023-03-24T01:56:09;15.80;42.90
431;DHT22;202;48.764;9.172;2023-03-24T01:58:40;15.80;42.60
431;DHT22;202;48.764;9.172;2023-03-24T02:01:09;15.80;42.80
431;DHT22;202;48.764;9.172;2023-03-24T02:03:39;15.80;43.50
431;DHT22;202;48.764;9.172;2023-03-24T02:06:07;15.90;43.20
431;DHT22;202;48.764;9.172;2023-03-24T02:08:38;15.90;40.70
431;DHT22;202;48.764;9.172;2023-03-24T02:11:06;15.90;41.60
431;DHT22;202;48.764;9.172;2023-03-24T02:13:33;15.90;42.00
431;DHT22;202;48.764;9.172;2023-03-24T02:16:18;15.90;41.40
431;DHT22;202;48.764;9.172;2023-03-24T02:18:59;15.90;41.20
431;DHT22;202;48.764;9.172;2023-03-24T02:21:57;15.90;40.90
431;DHT22;202;48.764;9.172;2023-03-24T02:25:08;15.90;41.20
431;DHT22;202;48.764;9.172;2023-03-24T02:28:02;15.90;41.70
431;DHT22;202;48.764;9.172;2023-03-24T02:31:04;15.80;41.30
431;DHT22;202;48.764;9.172;2023-03-24T02:34:04;15.70;41.70
431;DHT22;202;48.764;9.172;2023-03-24T02:36:58;15.80;42.00
431;DHT22;202;48.764;9.172;2023-03-24T02:42:32;15.70;41.60
431;DHT22;202;48.764;9.172;2023-03-24T02:45:16;15.80;40.10
431;DHT22;202;48.764;9.172;2023-03-24T02:47:51;15.80;39.80
431;DHT22;202;48.764;9.172;2023-03-24T02:50:27;15.90;40.20
431;DHT22;202;48.764;9.172;2023-03-24T02:53:03;15.80;41.00
431;DHT22;202;48.764;9.172;2023-03-24T02:55:33;15.90;39.80
431;DHT22;202;48.764;9.172;2023-03-24T02:58:05;15.90;39.70
431;DHT22;202;48.764;9.172;2023-03-24T03:00:35;15.90;39.70
431;DHT22;202;48.764;9.172;2023-03-24T03:03:10;15.90;39.70
431;DHT22;202;48.764;9.172;2023-03-24T03:05:42;15.80;40.10
431;DHT22;202;48.764;9.172;2023-03-24T03:08:12;15.90;39.40
431;DHT22;202;48.764;9.172;2023-03-24T03:10:45;16.00;39.30
431;DHT22;202;48.764;9.172;2023-03-24T03:13:17;16.00;39.10
431;DHT22;202;48.764;9.172;2023-03-24T03:15:49;16.10;39.20
431;DHT22;202;48.764;9.172;2023-03-24T03:18:23;16.10;39.20
431;DHT22;202;48.764;9.172;2023-03-24T03:20:53;16.10;39.90
431;DHT22;202;48.764;9.172;2023-03-24T03:23:25;16.10;39.20
431;DHT22;202;48.764;9.172;2023-03-24T03:25:57;16.10;39.20
431;DHT22;202;48.764;9.172;2023-03-24T03:28:30;16.10;39.20
431;DHT22;202;48.764;9.172;2023-03-24T03:31:01;16.20;39.30
431;DHT22;202;48.764;9.172;2023-03-24T03:33:34;16.20;39.30
431;DHT22;202;48.764;9.172;2023-03-24T03:36:06;16.20;39.30
431;DHT22;202;48.764;9.172;2023-03-24T03:38:44;16.20;39.30
431;DHT22;202;48.764;9.172;2023-03-24T03:41:15;16.20;39.20
431;DHT22;202;48.764;9.172;2023-03-24T03:43:43;16.20;39.10
431;DHT22;202;48.764;9.172;2023-03-24T03:46:11;16.20;39.30
431;DHT22;202;48.764;9.172;2023-03-24T03:48:38;16.20;39.30
431;DHT22;202;48.764;9.172;2023-03-24T03:51:06;16.20;39.30
431;DHT22;202;48.764;9.172;2023-03-24T03:53:40;16.10;39.40
431;DHT22;202;48.764;9.172;2023-03-24T03:56:09;16.20;39.40
431;DHT22;202;48.764;9.172;2023-03-24T03:58:38;16.20;39.90
431;DHT22;202;48.764;9.172;2023-03-24T04:01:08;16.20;39.30
431;DHT22;202;48.764;9.172;2023-03-24T04:03:51;16.20;39.40
431;DHT22;202;48.764;9.172;2023-03-24T04:06:26;16.30;39.40
431;DHT22;202;48.764;9.172;2023-03-24T04:08:59;16.20;39.30
431;DHT22;202;48.764;9.172;2023-03-24T04:11:38;16.20;39.30
431;DHT22;202;48.764;9.172;2023-03-24T04:17:09;16.20;39.30
431;DHT22;202;48.764;9.172;2023-03-24T04:19:49;16.20;39.30
431;DHT22;202;48.764;9.172;2023-03-24T04:22:25;16.20;39.30
431;DHT22;202;48.764;9.172;2023-03-24T04:24:59;16.20;39.50
431;DHT22;202;48.764;9.172;2023-03-24T04:27:37;16.20;38.00
431;DHT22;202;48.764;9.172;2023-03-24T04:30:12;16.30;37.80
431;DHT22;202;48.764;9.172;2023-03-24T04:32:44;16.30;37.50
431;DHT22;202;48.764;9.172;2023-03-24T04:35:18;16.30;37.70
431;DHT22;202;48.764;9.172;2023-03-24T04:37:58;16.20;38.20
431;DHT22;202;48.764;9.172;2023-03-24T04:40:29;16.30;37.70
431;DHT22;202;48.764;9.172;2023-03-24T04:42:59;16.30;37.60
431;DHT22;202;48.764;9.172;2023-03-24T04:45:30;16.30;38.00
431;DHT22;202;48.764;9.172;2023-03-24T04:48:01;16.30;37.90
431;DHT22;202;48.764;9.172;2023-03-24T04:50:30;16.40;38.10
431;DHT22;202;48.764;9.172;2023-03-24T04:52:59;16.40;37.80
431;DHT22;202;48.764;9.172;2023-03-24T04:55:44;16.40;37.50
431;DHT22;202;48.764;9.172;2023-03-24T04:58:14;16.50;38.20
431;DHT22;202;48.764;9.172;2023-03-24T05:00:43;16.50;38.00
431;DHT22;202;48.764;9.172;2023-03-24T05:03:11;16.50;38.40
431;DHT22;202;48.764;9.172;2023-03-24T05:05:38;16.40;38.60
431;DHT22;202;48.764;9.172;2023-03-24T05:08:05;16.50;38.80
431;DHT22;202;48.764;9.172;2023-03-24T05:10:33;16.50;39.50
431;DHT22;202;48.764;9.172;2023-03-24T05:13:00;16.40;40.20
431;DHT22;202;48.764;9.172;2023-03-24T05:15:28;16.50;39.50
431;DHT22;202;48.764;9.172;2023-03-24T05:17:57;16.60;39.60
431;DHT22;202;48.764;9.172;2023-03-24T05:20:25;16.60;39.60
431;DHT22;202;48.764;9.172;2023-03-24T05:22:53;16.60;39.70
431;DHT22;202;48.764;9.172;2023-03-24T05:25:21;16.50;39.70
431;DHT22;202;48.764;9.172;2023-03-24T05:27:48;16.60;40.20
431;DHT22;202;48.764;9.172;2023-03-24T05:30:16;16.60;41.00
431;DHT22;202;48.764;9.172;2023-03-24T05:32:45;16.50;42.60
431;DHT22;202;48.764;9.172;2023-03-24T05:35:13;16.50;43.50
431;DHT22;202;48.764;9.172;2023-03-24T05:37:43;16.50;44.20
431;DHT22;202;48.764;9.172;2023-03-24T05:40:10;16.50;44.90
431;DHT22;202;48.764;9.172;2023-03-24T05:42:40;16.40;45.40
431;DHT22;202;48.764;9.172;2023-03-24T05:45:08;16.40;45.90
431;DHT22;202;48.764;9.172;2023-03-24T05:47:36;16.40;47.10
431;DHT22;202;48.764;9.172;2023-03-24T05:50:04;16.30;48.20
431;DHT22;202;48.764;9.172;2023-03-24T05:52:35;16.30;49.30
431;DHT22;202;48.764;9.172;2023-03-24T05:55:02;16.30;49.30
431;DHT22;202;48.764;9.172;2023-03-24T05:57:30;16.30;49.90
431;DHT22;202;48.764;9.172;2023-03-24T05:59:59;16.30;51.40
431;DHT22;202;48.764;9.172;2023-03-24T06:02:26;16.20;51.10
431;DHT22;202;48.764;9.172;2023-03-24T06:04:54;16.30;50.80
431;DHT22;202;48.764;9.172;2023-03-24T06:07:22;16.20;51.10
431;DHT22;202;48.764;9.172;2023-03-24T06:09:53;16.20;52.00
431;DHT22;202;48.764;9.172;2023-03-24T06:12:22;16.10;52.60
431;DHT22;202;48.764;9.172;2023-03-24T06:14:50;16.00;52.60
431;DHT22;202;48.764;9.172;2023-03-24T06:17:17;16.00;54.00
431;DHT22;202;48.764;9.172;2023-03-24T06:19:46;16.00;53.90
431;DHT22;202;48.764;9.172;2023-03-24T06:22:15;15.90;55.50
431;DHT22;202;48.764;9.172;2023-03-24T06:24:43;16.00;55.20
431;DHT22;202;48.764;9.172;2023-03-24T06:27:13;15.90;55.20
431;DHT22;202;48.764;9.172;2023-03-24T06:29:40;15.90;54.80
431;DHT22;202;48.764;9.172;2023-03-24T06:32:08;15.90;54.40
431;DHT22;202;48.764;9.172;2023-03-24T06:34:35;15.90;54.50
431;DHT22;202;48.764;9.172;2023-03-24T06:37:02;15.80;53.90
431;DHT22;202;48.764;9.172;2023-03-24T06:39:29;15.70;54.80
431;DHT22;202;48.764;9.172;2023-03-24T06:41:56;15.70;55.70
431;DHT22;202;48.764;9.172;2023-03-24T06:44:25;15.60;56.50
431;DHT22;202;48.764;9.172;2023-03-24T06:46:52;15.60;56.50
431;DHT22;202;48.764;9.172;2023-03-24T06:49:19;15.60;57.20
431;DHT22;202;48.764;9.172;2023-03-24T06:51:46;15.70;57.30
431;DHT22;202;48.764;9.172;2023-03-24T06:54:13;15.70;56.80
431;DHT22;202;48.764;9.172;2023-03-24T06:56:40;15.70;57.50
431;DHT22;202;48.764;9.172;2023-03-24T06:59:07;15.70;58.40
431;DHT22;202;48.764;9.172;2023-03-24T07:01:36;15.70;57.80
431;DHT22;202;48.764;9.172;2023-03-24T07:04:04;15.80;57.40
431;DHT22;202;48.764;9.172;2023-03-24T07:06:32;15.70;57.80
431;DHT22;202;48.764;9.172;2023-03-24T07:08:59;15.70;58.40
431;DHT22;202;48.764;9.172;2023-03-24T07:11:27;15.70;58.10
431;DHT22;202;48.764;9.172;2023-03-24T07:13:57;15.70;58.40
431;DHT22;202;48.764;9.172;2023-03-24T07:16:24;15.60;58.30
431;DHT22;202;48.764;9.172;2023-03-24T07:18:52;15.50;59.50
431;DHT22;202;48.764;9.172;2023-03-24T07:21:19;15.40;60.40
431;DHT22;202;48.764;9.172;2023-03-24T07:23:47;15.40;61.10
431;DHT22;202;48.764;9.172;2023-03-24T07:26:14;15.40;63.00
431;DHT22;202;48.764;9.172;2023-03-24T07:28:42;15.40;63.60
431;DHT22;202;48.764;9.172;2023-03-24T07:31:11;15.40;64.70
431;DHT22;202;48.764;9.172;2023-03-24T07:33:39;15.40;65.10
431;DHT22;202;48.764;9.172;2023-03-24T07:40:18;15.10;67.90
431;DHT22;202;48.764;9.172;2023-03-24T07:43:40;15.10;69.50
431;DHT22;202;48.764;9.172;2023-03-24T07:49:46;14.90;70.80
431;DHT22;202;48.764;9.172;2023-03-24T07:53:10;15.00;72.10
431;DHT22;202;48.764;9.172;2023-03-24T07:56:26;14.90;72.30
431;DHT22;202;48.764;9.172;2023-03-24T08:02:18;14.90;74.00
431;DHT22;202;48.764;9.172;2023-03-24T08:04:55;14.90;74.80
431;DHT22;202;48.764;9.172;2023-03-24T08:07:55;15.00;74.90
431;DHT22;202;48.764;9.172;2023-03-24T08:11:19;15.00;75.00
431;DHT22;202;48.764;9.172;2023-03-24T08:23:50;14.90;77.00
431;DHT22;202;48.764;9.172;2023-03-24T08:30:54;14.80;77.70
431;DHT22;202;48.764;9.172;2023-03-24T08:39:55;14.90;76.00
431;DHT22;202;48.764;9.172;2023-03-24T08:42:23;14.70;76.90
431;DHT22;202;48.764;9.172;2023-03-24T08:44:50;14.70;78.80
431;DHT22;202;48.764;9.172;2023-03-24T08:47:17;14.70;77.50
431;DHT22;202;48.764;9.172;2023-03-24T08:49:43;14.70;79.10
431;DHT22;202;48.764;9.172;2023-03-24T08:52:10;14.80;77.70
431;DHT22;202;48.764;9.172;2023-03-24T08:54:37;14.80;78.80
431;DHT22;202;48.764;9.172;2023-03-24T08:57:06;15.00;78.50
431;DHT22;202;48.764;9.172;2023-03-24T08:59:35;15.00;77.00
431;DHT22;202;48.764;9.172;2023-03-24T09:02:02;15.10;76.20
431;DHT22;202;48.764;9.172;2023-03-24T09:04:29;15.10;74.10
431;DHT22;202;48.764;9.172;2023-03-24T09:06:56;15.00;76.70
431;DHT22;202;48.764;9.172;2023-03-24T09:09:25;15.00;75.00
431;DHT22;202;48.764;9.172;2023-03-24T09:11:55;15.00;74.50
431;DHT22;202;48.764;9.172;2023-03-24T09:14:37;15.10;73.90
431;DHT22;202;48.764;9.172;2023-03-24T09:17:04;15.20;73.10
431;DHT22;202;48.764;9.172;2023-03-24T09:19:31;15.10;72.60
431;DHT22;202;48.764;9.172;2023-03-24T09:21:58;15.30;72.40
431;DHT22;202;48.764;9.172;2023-03-24T09:24:25;15.40;70.50
431;DHT22;202;48.764;9.172;2023-03-24T09:26:52;15.40;69.20
431;DHT22;202;48.764;9.172;2023-03-24T09:29:19;15.50;68.00
431;DHT22;202;48.764;9.172;2023-03-24T09:31:47;15.50;68.70
431;DHT22;202;48.764;9.172;2023-03-24T09:34:14;15.60;68.10
431;DHT22;202;48.764;9.172;2023-03-24T09:36:41;15.80;67.60
431;DHT22;202;48.764;9.172;2023-03-24T09:39:08;15.70;64.20
431;DHT22;202;48.764;9.172;2023-03-24T09:41:35;15.60;66.30
431;DHT22;202;48.764;9.172;2023-03-24T09:44:06;15.70;65.50
431;DHT22;202;48.764;9.172;2023-03-24T09:46:39;15.70;65.30
431;DHT22;202;48.764;9.172;2023-03-24T09:49:12;15.70;64.70
431;DHT22;202;48.764;9.172;2023-03-24T09:51:43;15.90;64.90
431;DHT22;202;48.764;9.172;2023-03-24T09:54:15;16.10;63.50
431;DHT22;202;48.764;9.172;2023-03-24T09:56:45;16.10;62.30
431;DHT22;202;48.764;9.172;2023-03-24T09:59:17;16.20;63.30
431;DHT22;202;48.764;9.172;2023-03-24T10:01:45;16.30;63.30
431;DHT22;202;48.764;9.172;2023-03-24T10:04:18;16.30;61.40
431;DHT22;202;48.764;9.172;2023-03-24T10:06:46;16.50;60.90
431;DHT22;202;48.764;9.172;2023-03-24T10:09:23;16.70;59.90
431;DHT22;202;48.764;9.172;2023-03-24T10:12:10;16.90;57.70
431;DHT22;202;48.764;9.172;2023-03-24T10:14:57;17.20;55.90
431;DHT22;202;48.764;9.172;2023-03-24T10:17:37;17.10;56.10
431;DHT22;202;48.764;9.172;2023-03-24T10:20:17;17.20;57.00
431;DHT22;202;48.764;9.172;2023-03-24T10:22:54;17.00;54.80
431;DHT22;202;48.764;9.172;2023-03-24T10:25:28;17.00;53.70
431;DHT22;202;48.764;9.172;2023-03-24T10:27:59;17.00;52.60
431;DHT22;202;48.764;9.172;2023-03-24T10:30:30;16.90;53.20
431;DHT22;202;48.764;9.172;2023-03-24T10:32:58;17.00;53.10
431;DHT22;202;48.764;9.172;2023-03-24T10:38:22;17.10;51.00
431;DHT22;202;48.764;9.172;2023-03-24T10:40:51;17.20;50.10
431;DHT22;202;48.764;9.172;2023-03-24T10:43:20;17.10;49.40
431;DHT22;202;48.764;9.172;2023-03-24T10:45:51;17.10;48.00
431;DHT22;202;48.764;9.172;2023-03-24T10:48:34;17.10;48.50
431;DHT22;202;48.764;9.172;2023-03-24T10:51:13;17.30;48.80
431;DHT22;202;48.764;9.172;2023-03-24T10:53:41;17.20;48.40
431;DHT22;202;48.764;9.172;2023-03-24T10:56:14;17.30;48.30
431;DHT22;202;48.764;9.172;2023-03-24T10:58:42;17.40;47.10
431;DHT22;202;48.764;9.172;2023-03-24T11:01:21;17.40;48.10
431;DHT22;202;48.764;9.172;2023-03-24T11:03:49;17.40;47.90
431;DHT22;202;48.764;9.172;2023-03-24T11:06:19;17.40;47.30
431;DHT22;202;48.764;9.172;2023-03-24T11:08:47;17.50;47.60
431;DHT22;202;48.764;9.172;2023-03-24T11:11:33;17.50;47.30
431;DHT22;202;48.764;9.172;2023-03-24T11:14:01;17.30;47.80
431;DHT22;202;48.764;9.172;2023-03-24T11:16:30;17.30;46.70
431;DHT22;202;48.764;9.172;2023-03-24T11:18:58;17.40;47.10
431;DHT22;202;48.764;9.172;2023-03-24T11:21:29;17.50;46.00
431;DHT22;202;48.764;9.172;2023-03-24T11:23:57;17.40;45.30
431;DHT22;202;48.764;9.172;2023-03-24T11:26:29;17.50;45.40
431;DHT22;202;48.764;9.172;2023-03-24T11:28:59;17.50;45.40
431;DHT22;202;48.764;9.172;2023-03-24T11:31:28;17.60;44.70
431;DHT22;202;48.764;9.172;2023-03-24T11:33:58;17.60;44.20
431;DHT22;202;48.764;9.172;2023-03-24T11:36:57;17.70;44.90
431;DHT22;202;48.764;9.172;2023-03-24T11:39:26;17.70;44.00
431;DHT22;202;48.764;9.172;2023-03-24T11:42:10;17.90;44.40
431;DHT22;202;48.764;9.172;2023-03-24T11:44:47;17.80;43.80
431;DHT22;202;48.764;9.172;2023-03-24T11:47:22;17.80;43.10
431;DHT22;202;48.764;9.172;2023-03-24T11:49:57;17.80;43.10
431;DHT22;202;48.764;9.172;2023-03-24T11:52:30;17.90;43.00
431;DHT22;202;48.764;9.172;2023-03-24T11:54:58;18.00;42.10
431;DHT22;202;48.764;9.172;2023-03-24T11:57:39;17.90;42.50
431;DHT22;202;48.764;9.172;2023-03-24T12:00:13;17.70;42.40
431;DHT22;202;48.764;9.172;2023-03-24T12:02:57;17.60;42.60
431;DHT22;202;48.764;9.172;2023-03-24T12:05:31;17.50;41.20
431;DHT22;202;48.764;9.172;2023-03-24T12:11:14;17.30;42.10
431;DHT22;202;48.764;9.172;2023-03-24T12:13:45;17.40;41.60
431;DHT22;202;48.764;9.172;2023-03-24T12:16:26;17.40;41.30
431;DHT22;202;48.764;9.172;2023-03-24T12:19:13;17.50;40.80
431;DHT22;202;48.764;9.172;2023-03-24T12:21:51;17.50;41.90
431;DHT22;202;48.764;9.172;2023-03-24T12:24:29;17.40;40.70
431;DHT22;202;48.764;9.172;2023-03-24T12:27:00;17.50;40.50
431;DHT22;202;48.764;9.172;2023-03-24T12:29:54;17.60;39.00
431;DHT22;202;48.764;9.172;2023-03-24T12:32:45;17.60;39.60
431;DHT22;202;48.764;9.172;2023-03-24T12:35:33;17.60;40.10
431;DHT22;202;48.764;9.172;2023-03-24T12:38:16;17.60;39.40
431;DHT22;202;48.764;9.172;2023-03-24T12:41:18;17.60;40.50
431;DHT22;202;48.764;9.172;2023-03-24T12:43:56;17.50;40.50
431;DHT22;202;48.764;9.172;2023-03-24T12:46:33;17.60;39.30
431;DHT22;202;48.764;9.172;2023-03-24T12:49:14;17.60;39.50
431;DHT22;202;48.764;9.172;2023-03-24T12:51:49;17.50;40.40
431;DHT22;202;48.764;9.172;2023-03-24T12:54:30;17.40;40.30
431;DHT22;202;48.764;9.172;2023-03-24T12:57:06;17.40;40.30
431;DHT22;202;48.764;9.172;2023-03-24T12:59:37;17.30;40.70
431;DHT22;202;48.764;9.172;2023-03-24T13:02:15;17.40;41.20
431;DHT22;202;48.764;9.172;2023-03-24T13:04:47;17.40;40.90
431;DHT22;202;48.764;9.172;2023-03-24T13:07:17;17.30;41.10
431;DHT22;202;48.764;9.172;2023-03-24T13:09:47;17.40;41.00
431;DHT22;202;48.764;9.172;2023-03-24T13:12:21;17.40;41.40
431;DHT22;202;48.764;9.172;2023-03-24T13:14:55;17.40;40.90
431;DHT22;202;48.764;9.172;2023-03-24T13:17:26;17.50;41.40
431;DHT22;202;48.764;9.172;2023-03-24T13:19:55;17.40;40.50
431;DHT22;202;48.764;9.172;2023-03-24T13:22:24;17.30;41.00
431;DHT22;202;48.764;9.172;2023-03-24T13:24:53;17.40;41.60
431;DHT22;202;48.764;9.172;2023-03-24T13:27:23;17.30;40.80
431;DHT22;202;48.764;9.172;2023-03-24T13:30:02;17.30;40.70
431;DHT22;202;48.764;9.172;2023-03-24T13:32:33;17.20;41.30
431;DHT22;202;48.764;9.172;2023-03-24T13:35:09;17.20;41.50
431;DHT22;202;48.764;9.172;2023-03-24T13:37:40;17.10;41.70
431;DHT22;202;48.764;9.172;2023-03-24T13:40:17;17.20;42.00
431;DHT22;202;48.764;9.172;2023-03-24T13:42:47;17.10;41.50
431;DHT22;202;48.764;9.172;2023-03-24T13:45:28;17.20;41.80
431;DHT22;202;48.764;9.172;2023-03-24T13:48:14;17.20;42.00
431;DHT22;202;48.764;9.172;2023-03-24T13:50:52;17.10;41.90
431;DHT22;202;48.764;9.172;2023-03-24T13:53:35;17.00;41.40
431;DHT22;202;48.764;9.172;2023-03-24T13:56:06;16.90;42.30
431;DHT22;202;48.764;9.172;2023-03-24T13:59:04;16.90;42.10
431;DHT22;202;48.764;9.172;2023-03-24T14:01:35;16.80;42.70
431;DHT22;202;48.764;9.172;2023-03-24T14:04:25;16.90;42.30
431;DHT22;202;48.764;9.172;2023-03-24T14:06:53;16.90;42.80
431;DHT22;202;48.764;9.172;2023-03-24T14:09:22;17.00;42.50
431;DHT22;202;48.764;9.172;2023-03-24T14:15:20;17.00;41.80
431;DHT22;202;48.764;9.172;2023-03-24T14:17:52;17.10;41.90
431;DHT22;202;48.764;9.172;2023-03-24T14:20:28;17.10;41.90
431;DHT22;202;48.764;9.172;2023-03-24T14:22:57;17.10;41.80
431;DHT22;202;48.764;9.172;2023-03-24T14:25:27;17.20;43.70
431;DHT22;202;48.764;9.172;2023-03-24T14:28:06;17.10;46.90
431;DHT22;202;48.764;9.172;2023-03-24T14:30:59;16.60;51.50
431;DHT22;202;48.764;9.172;2023-03-24T14:33:28;16.50;51.60
431;DHT22;202;48.764;9.172;2023-03-24T14:35:57;16.30;55.00
431;DHT22;202;48.764;9.172;2023-03-24T14:38:34;16.20;54.40
431;DHT22;202;48.764;9.172;2023-03-24T15:59:43;14.40;71.80
431;DHT22;202;48.764;9.172;2023-03-24T16:02:16;14.40;71.40
431;DHT22;202;48.764;9.172;2023-03-24T16:04:46;14.40;70.20
431;DHT22;202;48.764;9.172;2023-03-24T16:07:21;14.50;69.10
431;DHT22;202;48.764;9.172;2023-03-24T16:10:00;14.40;67.00
431;DHT22;202;48.764;9.172;2023-03-24T16:12:31;14.50;65.40
431;DHT22;202;48.764;9.172;2023-03-24T16:15:00;14.50;66.50
431;DHT22;202;48.764;9.172;2023-03-24T16:17:29;14.50;65.60
431;DHT22;202;48.764;9.172;2023-03-24T16:19:56;14.60;65.90
431;DHT22;202;48.764;9.172;2023-03-24T16:22:23;14.60;64.20
431;DHT22;202;48.764;9.172;2023-03-24T16:24:50;14.50;65.70
431;DHT22;202;48.764;9.172;2023-03-24T16:27:16;14.50;66.70
431;DHT22;202;48.764;9.172;2023-03-24T16:29:54;14.50;66.70
431;DHT22;202;48.764;9.172;2023-03-24T16:32:23;14.50;67.10
431;DHT22;202;48.764;9.172;2023-03-24T16:34:50;14.50;67.10
431;DHT22;202;48.764;9.172;2023-03-24T16:37:16;14.70;66.50
431;DHT22;202;48.764;9.172;2023-03-24T16:39:43;14.70;66.80
431;DHT22;202;48.764;9.172;2023-03-24T16:42:10;14.80;65.20
431;DHT22;202;48.764;9.172;2023-03-24T16:44:38;14.70;64.70
431;DHT22;202;48.764;9.172;2023-03-24T16:47:05;14.70;65.70
431;DHT22;202;48.764;9.172;2023-03-24T16:49:37;14.60;65.60
431;DHT22;202;48.764;9.172;2023-03-24T16:52:08;14.70;66.70
431;DHT22;202;48.764;9.172;2023-03-24T16:54:35;14.70;66.10
431;DHT22;202;48.764;9.172;2023-03-24T16:57:03;14.80;64.30
431;DHT22;202;48.764;9.172;2023-03-24T16:59:30;14.80;64.70
431;DHT22;202;48.764;9.172;2023-03-24T17:02:00;14.80;64.90
431;DHT22;202;48.764;9.172;2023-03-24T17:04:29;14.70;63.40
431;DHT22;202;48.764;9.172;2023-03-24T17:06:59;14.70;64.50
431;DHT22;202;48.764;9.172;2023-03-24T17:09:26;14.70;63.60
431;DHT22;202;48.764;9.172;2023-03-24T17:11:57;14.70;63.00
431;DHT22;202;48.764;9.172;2023-03-24T17:14:26;14.70;62.30
431;DHT22;202;48.764;9.172;2023-03-24T17:16:55;14.60;62.20
431;DHT22;202;48.764;9.172;2023-03-24T17:19:22;14.60;63.00
431;DHT22;202;48.764;9.172;2023-03-24T17:21:55;14.60;62.20
431;DHT22;202;48.764;9.172;2023-03-24T17:24:26;14.60;60.40
431;DHT22;202;48.764;9.172;2023-03-24T17:26:53;14.60;61.60
431;DHT22;202;48.764;9.172;2023-03-24T17:29:21;14.60;58.90
431;DHT22;202;48.764;9.172;2023-03-24T17:31:48;14.40;60.00
431;DHT22;202;48.764;9.172;2023-03-24T17:34:15;14.40;60.30
431;DHT22;202;48.764;9.172;2023-03-24T17:36:42;14.40;59.60
431;DHT22;202;48.764;9.172;2023-03-24T17:39:14;14.30;59.60
431;DHT22;202;48.764;9.172;2023-03-24T17:41:42;14.30;59.70
431;DHT22;202;48.764;9.172;2023-03-24T17:44:09;14.30;58.80
431;DHT22;202;48.764;9.172;2023-03-24T17:46:36;14.20;58.50
431;DHT22;202;48.764;9.172;2023-03-24T17:49:03;14.30;58.40
431;DHT22;202;48.764;9.172;2023-03-24T17:51:30;14.30;58.10
431;DHT22;202;48.764;9.172;2023-03-24T17:53:57;14.30;57.10
431;DHT22;202;48.764;9.172;2023-03-24T17:56:25;14.30;57.50
431;DHT22;202;48.764;9.172;2023-03-24T17:58:53;14.40;57.20
431;DHT22;202;48.764;9.172;2023-03-24T18:01:23;14.30;57.50
431;DHT22;202;48.764;9.172;2023-03-24T18:03:53;14.30;60.00
431;DHT22;202;48.764;9.172;2023-03-24T18:06:21;14.30;61.40
431;DHT22;202;48.764;9.172;2023-03-24T18:08:50;14.30;60.00
431;DHT22;202;48.764;9.172;2023-03-24T18:11:17;14.30;58.90
431;DHT22;202;48.764;9.172;2023-03-24T18:13:46;14.30;58.30
431;DHT22;202;48.764;9.172;2023-03-24T18:16:15;14.30;57.60
431;DHT22;202;48.764;9.172;2023-03-24T18:18:42;14.30;57.20
431;DHT22;202;48.764;9.172;2023-03-24T18:21:09;14.20;55.90
431;DHT22;202;48.764;9.172;2023-03-24T18:23:37;14.20;56.40
431;DHT22;202;48.764;9.172;2023-03-24T18:26:06;14.10;55.70
431;DHT22;202;48.764;9.172;2023-03-24T18:28:34;14.10;57.00
431;DHT22;202;48.764;9.172;2023-03-24T18:31:01;14.10;55.20
431;DHT22;202;48.764;9.172;2023-03-24T18:33:32;14.00;56.90
431;DHT22;202;48.764;9.172;2023-03-24T18:35:59;14.00;56.80
431;DHT22;202;48.764;9.172;2023-03-24T18:38:26;13.90;54.90
431;DHT22;202;48.764;9.172;2023-03-24T18:40:57;13.90;54.20
431;DHT22;202;48.764;9.172;2023-03-24T18:43:24;13.70;55.50
431;DHT22;202;48.764;9.172;2023-03-24T18:45:51;13.70;56.60
431;DHT22;202;48.764;9.172;2023-03-24T18:48:18;13.70;56.60
431;DHT22;202;48.764;9.172;2023-03-24T18:50:48;13.60;56.50
431;DHT22;202;48.764;9.172;2023-03-24T18:53:16;13.60;56.50
431;DHT22;202;48.764;9.172;2023-03-24T18:55:44;13.60;55.70
431;DHT22;202;48.764;9.172;2023-03-24T18:58:11;13.60;55.30
431;DHT22;202;48.764;9.172;2023-03-24T19:00:40;13.70;54.60
431;DHT22;202;48.764;9.172;2023-03-24T19:03:07;13.70;54.70
431;DHT22;202;48.764;9.172;2023-03-24T19:05:34;13.70;54.80
431;DHT22;202;48.764;9.172;2023-03-24T19:08:02;13.80;54.20
431;DHT22;202;48.764;9.172;2023-03-24T19:10:32;13.70;54.20
431;DHT22;202;48.764;9.172;2023-03-24T19:12:59;13.60;53.90